KOKK/OKK METAR and TAF weather

Enter ICAO airport designator
Station Type Date Time Source
KOKK METAR 2019/05/21 19:56 UTC NOAA

KOKK 211956Z AUTO 08016KT 10SM OVC060 13/07 A3007 RMK AO2 SLP187 T01330067


Station Type Date Time Source
KOKK Decoded METAR 2019/05/21 19:56 UTC NOAA

Kokomo, Kokomo Municipal Airport, IN, United States (KOKK) 40-32N 086-04W
May 21, 2019 - 03:56 PM EDT / 2019.05.21 1956 UTC
Wind: from the E (080 degrees) at 18 MPH (16 KT):0
Visibility: 10 mile(s):0
Sky conditions: overcast
Temperature: 55.9 F (13.3 C)
Dew Point: 44.1 F (6.7 C)
Relative Humidity: 64%
Pressure (altimeter): 30.07 in. Hg (1018 hPa)
ob: KOKK 211956Z AUTO 08016KT 10SM OVC060 13/07 A3007 RMK AO2 SLP187 T01330067
cycle: 20

Station Type Date Time Source
KOKK TAF UTC NOAA

Error!

Example: see airport list